PWSweather.com
Personal Weather Stations
Station Observations
KUNGSHAMN
Vaejern, KungshamnSE 45643

VaejernKungshamnSE 45643

Lat: 58.376743, Lon: 11.258999

Elevation: 72

Station Type: Vantagepro2

http://damgaard.eu/vs

Latest ConditionsUpdated 11:55:05 PM GMT+01:01 Wednesday, Aug 15, 2018
Currently Today's Max Today's Min Today's Average
Temperature 64.4°F18.0°C 157.9°F69.9°C 57.2°F14.0°C 75.6°F24.2°C
Dew Point 61.7°F16.5°C 157.8°F69.9°C 55.7°F13.2°C 72.6°F22.6°C
Winds 5.0 mph S8.0 kmh S 16.0 mph -25.7 kmh - - 6.9 mph 11.1 kmh
Wind Gusts 16.0 mph25.7 kmh 18.0 mph29.0 kmh - -
Humidity 91% 100% 80% 90%
Pressure 24.18 in818.8 mb 24.54 in831.0 mb 24.12 in816.8 mb -
Hour Temp Dew Point Humidity Winds Wind Gusts Pressure Precip Precip Rate Daily Precip Total
11:55 PM 64.4°F18.0°C 61.7°F16.5°C 91% 5.0 mph S8.0 kmh S 16.0 mph25.7 kmh 24.18 in818.8 mb 0.00 in0.0 mm 0.00 in0.0 mm 0.00 in0.0 mm
11:50 PM 64.4°F18.0°C 61.7°F16.5°C 91% 16.0 mph SSW25.7 kmh SSW 15.0 mph24.1 kmh 24.18 in818.8 mb 0.00 in0.0 mm 0.00 in0.0 mm 0.00 in0.0 mm
11:45 PM 64.2°F17.9°C 61.8°F16.6°C 92% 11.0 mph S17.7 kmh S 11.0 mph17.7 kmh 24.18 in818.8 mb 0.00 in0.0 mm 0.00 in0.0 mm 0.00 in0.0 mm
11:40 PM 64.0°F17.8°C 61.3°F16.3°C 91% 6.0 mph SSW9.7 kmh SSW 11.0 mph17.7 kmh 24.18 in818.8 mb 0.00 in0.0 mm 0.00 in0.0 mm 0.00 in0.0 mm
11:35 PM 63.9°F17.7°C 61.2°F16.2°C 91% 3.0 mph S4.8 kmh S 12.0 mph19.3 kmh 24.18 in818.8 mb 0.00 in0.0 mm 0.00 in0.0 mm 0.00 in0.0 mm
11:30 PM 63.9°F17.7°C 61.2°F16.2°C 91% 10.0 mph SSE16.1 kmh SSE 14.0 mph22.5 kmh 24.18 in818.8 mb 0.00 in0.0 mm 0.00 in0.0 mm 0.00 in0.0 mm
11:25 PM 64.0°F17.8°C 61.3°F16.3°C 91% 6.0 mph S9.7 kmh S 12.0 mph19.3 kmh 24.18 in818.8 mb 0.00 in0.0 mm 0.00 in0.0 mm 0.00 in0.0 mm
11:20 PM 64.1°F17.8°C 61.4°F16.3°C 91% 10.0 mph S16.1 kmh S 13.0 mph20.9 kmh 24.18 in818.8 mb 0.00 in0.0 mm 0.00 in0.0 mm 0.00 in0.0 mm
11:15 PM 64.4°F18.0°C 61.3°F16.3°C 90% 11.0 mph S17.7 kmh S 17.0 mph27.4 kmh 24.18 in818.8 mb 0.00 in0.0 mm 0.00 in0.0 mm 0.00 in0.0 mm
11:10 PM 64.3°F17.9°C 60.9°F16.1°C 89% 9.0 mph S14.5 kmh S 15.0 mph24.1 kmh 24.18 in818.8 mb 0.00 in0.0 mm 0.00 in0.0 mm 0.00 in0.0 mm
11:05 PM 64.6°F18.1°C 60.9°F16.1°C 88% 11.0 mph SSW17.7 kmh SSW 17.0 mph27.4 kmh 24.18 in818.8 mb 0.00 in0.0 mm 0.00 in0.0 mm 0.00 in0.0 mm
11:00 PM 65.1°F18.4°C 62.0°F16.7°C 90% 12.0 mph S19.3 kmh S 14.0 mph22.5 kmh 24.18 in818.8 mb 0.00 in0.0 mm 0.00 in0.0 mm 0.00 in0.0 mm
10:55 PM 65.0°F18.3°C 61.6°F16.4°C 89% 14.0 mph S22.5 kmh S 16.0 mph25.7 kmh 24.18 in818.8 mb 0.00 in0.0 mm 0.00 in0.0 mm 0.00 in0.0 mm
10:50 PM 64.9°F18.3°C 61.8°F16.6°C 90% 10.0 mph S16.1 kmh S 13.0 mph20.9 kmh 24.18 in818.8 mb 0.00 in0.0 mm 0.00 in0.0 mm 0.00 in0.0 mm
10:45 PM 64.9°F18.3°C 61.8°F16.6°C 90% 5.0 mph SSW8.0 kmh SSW 13.0 mph20.9 kmh 24.18 in818.8 mb 0.00 in0.0 mm 0.00 in0.0 mm 0.00 in0.0 mm
10:40 PM 64.9°F18.3°C 61.8°F16.6°C 90% 7.0 mph SSW11.3 kmh SSW 12.0 mph19.3 kmh 24.18 in818.8 mb 0.00 in0.0 mm 0.00 in0.0 mm 0.00 in0.0 mm
10:35 PM 64.9°F18.3°C 61.8°F16.6°C 90% 11.0 mph SSW17.7 kmh SSW 12.0 mph19.3 kmh 24.18 in818.8 mb 0.00 in0.0 mm 0.00 in0.0 mm 0.00 in0.0 mm
10:30 PM 64.9°F18.3°C 61.8°F16.6°C 90% 4.0 mph SSW6.4 kmh SSW 13.0 mph20.9 kmh 24.18 in818.8 mb 0.00 in0.0 mm 0.00 in0.0 mm 0.00 in0.0 mm
10:25 PM 64.8°F18.2°C 61.7°F16.5°C 90% 10.0 mph S16.1 kmh S 15.0 mph24.1 kmh 24.18 in818.8 mb 0.00 in0.0 mm 0.00 in0.0 mm 0.00 in0.0 mm
10:20 PM 64.8°F18.2°C 61.7°F16.5°C 90% 11.0 mph SSW17.7 kmh SSW 16.0 mph25.7 kmh 24.18 in818.8 mb 0.00 in0.0 mm 0.00 in0.0 mm 0.00 in0.0 mm
10:15 PM 64.8°F18.2°C 62.1°F16.7°C 91% 5.0 mph SSW8.0 kmh SSW 13.0 mph20.9 kmh 24.18 in818.8 mb 0.00 in0.0 mm 0.00 in0.0 mm 0.00 in0.0 mm
10:10 PM 64.8°F18.2°C 62.1°F16.7°C 91% 2.0 mph SSW3.2 kmh SSW 14.0 mph22.5 kmh 24.18 in818.8 mb 0.00 in0.0 mm 0.00 in0.0 mm 0.00 in0.0 mm
10:05 PM 64.7°F18.2°C 62.0°F16.7°C 91% 10.0 mph S16.1 kmh S 15.0 mph24.1 kmh 24.18 in818.8 mb 0.00 in0.0 mm 0.00 in0.0 mm 0.00 in0.0 mm
10:00 PM 64.7°F18.2°C 62.0°F16.7°C 91% 12.0 mph SSW19.3 kmh SSW 14.0 mph22.5 kmh 24.18 in818.8 mb 0.00 in0.0 mm 0.00 in0.0 mm 0.00 in0.0 mm
09:55 PM 64.6°F18.1°C 61.9°F16.6°C 91% 9.0 mph S14.5 kmh S 16.0 mph25.7 kmh 24.18 in818.8 mb 0.00 in0.0 mm 0.00 in0.0 mm 0.00 in0.0 mm
09:50 PM 64.4°F18.0°C 61.7°F16.5°C 91% 5.0 mph S8.0 kmh S 15.0 mph24.1 kmh 24.18 in818.8 mb 0.00 in0.0 mm 0.00 in0.0 mm 0.00 in0.0 mm
09:45 PM 64.3°F17.9°C 61.6°F16.4°C 91% 11.0 mph SSE17.7 kmh SSE 12.0 mph19.3 kmh 24.18 in818.8 mb 0.00 in0.0 mm 0.00 in0.0 mm 0.00 in0.0 mm
09:40 PM 64.2°F17.9°C 61.5°F16.4°C 91% 9.0 mph SSW14.5 kmh SSW 13.0 mph20.9 kmh 24.18 in818.8 mb 0.00 in0.0 mm 0.00 in0.0 mm 0.00 in0.0 mm
09:35 PM 64.2°F17.9°C 61.2°F16.2°C 90% 11.0 mph S17.7 kmh S 11.0 mph17.7 kmh 24.18 in818.8 mb 0.00 in0.0 mm 0.00 in0.0 mm 0.00 in0.0 mm
09:30 PM 64.2°F17.9°C 61.2°F16.2°C 90% 7.0 mph S11.3 kmh S 13.0 mph20.9 kmh 24.18 in818.8 mb 0.00 in0.0 mm 0.00 in0.0 mm 0.00 in0.0 mm
09:25 PM 64.3°F17.9°C 61.2°F16.2°C 90% 9.0 mph SSE14.5 kmh SSE 13.0 mph20.9 kmh 24.18 in818.8 mb 0.00 in0.0 mm 0.00 in0.0 mm 0.00 in0.0 mm
09:20 PM 64.3°F17.9°C 61.2°F16.2°C 90% 9.0 mph SSW14.5 kmh SSW 13.0 mph20.9 kmh 24.18 in818.8 mb 0.00 in0.0 mm 0.00 in0.0 mm 0.00 in0.0 mm
09:15 PM 64.4°F18.0°C 61.0°F16.1°C 89% 11.0 mph S17.7 kmh S 14.0 mph22.5 kmh 24.18 in818.8 mb 0.00 in0.0 mm 0.00 in0.0 mm 0.00 in0.0 mm
09:10 PM 64.3°F17.9°C 60.9°F16.1°C 89% 11.0 mph S17.7 kmh S 13.0 mph20.9 kmh 24.18 in818.8 mb 0.00 in0.0 mm 0.00 in0.0 mm 0.00 in0.0 mm
09:05 PM 64.3°F17.9°C 60.9°F16.1°C 89% 6.0 mph S9.7 kmh S 14.0 mph22.5 kmh 24.18 in818.8 mb 0.00 in0.0 mm 0.00 in0.0 mm 0.00 in0.0 mm
09:00 PM 64.3°F17.9°C 60.9°F16.1°C 89% 7.0 mph S11.3 kmh S 12.0 mph19.3 kmh 24.18 in818.8 mb 0.00 in0.0 mm 0.00 in0.0 mm 0.00 in0.0 mm
08:55 PM 64.2°F17.9°C 60.8°F16.0°C 89% 8.0 mph S12.9 kmh S 12.0 mph19.3 kmh 24.18 in818.8 mb 0.00 in0.0 mm 0.00 in0.0 mm 0.00 in0.0 mm
08:50 PM 64.2°F17.9°C 60.8°F16.0°C 89% 5.0 mph SSE8.0 kmh SSE 11.0 mph17.7 kmh 24.18 in818.8 mb 0.00 in0.0 mm 0.00 in0.0 mm 0.00 in0.0 mm
08:45 PM 64.2°F17.9°C 60.8°F16.0°C 89% 9.0 mph S14.5 kmh S 12.0 mph19.3 kmh 24.18 in818.8 mb 0.00 in0.0 mm 0.00 in0.0 mm 0.00 in0.0 mm
08:40 PM 64.2°F17.9°C 60.8°F16.0°C 89% 7.0 mph S11.3 kmh S 14.0 mph22.5 kmh 24.18 in818.8 mb 0.00 in0.0 mm 0.00 in0.0 mm 0.00 in0.0 mm
08:35 PM 64.2°F17.9°C 60.5°F15.8°C 88% 5.0 mph S8.0 kmh S 13.0 mph20.9 kmh 24.18 in818.8 mb 0.00 in0.0 mm 0.00 in0.0 mm 0.00 in0.0 mm
08:30 PM 64.3°F17.9°C 60.6°F15.9°C 88% 5.0 mph S8.0 kmh S 14.0 mph22.5 kmh 24.18 in818.8 mb 0.00 in0.0 mm 0.00 in0.0 mm 0.00 in0.0 mm
08:25 PM 64.3°F17.9°C 60.6°F15.9°C 88% 10.0 mph SSW16.1 kmh SSW 14.0 mph22.5 kmh 24.18 in818.8 mb 0.00 in0.0 mm 0.00 in0.0 mm 0.00 in0.0 mm
08:20 PM 64.3°F17.9°C 60.6°F15.9°C 88% 7.0 mph S11.3 kmh S 15.0 mph24.1 kmh 24.18 in818.8 mb 0.00 in0.0 mm 0.00 in0.0 mm 0.00 in0.0 mm
08:15 PM 64.3°F17.9°C 60.6°F15.9°C 88% 10.0 mph S16.1 kmh S 12.0 mph19.3 kmh 24.18 in818.8 mb 0.00 in0.0 mm 0.00 in0.0 mm 0.00 in0.0 mm
08:10 PM 64.3°F17.9°C 60.6°F15.9°C 88% 9.0 mph S14.5 kmh S 14.0 mph22.5 kmh 24.18 in818.8 mb 0.00 in0.0 mm 0.00 in0.0 mm 0.00 in0.0 mm
08:05 PM 64.2°F17.9°C 60.5°F15.8°C 88% 6.0 mph SW9.7 kmh SW 14.0 mph22.5 kmh 24.18 in818.8 mb 0.00 in0.0 mm 0.00 in0.0 mm 0.00 in0.0 mm
08:00 PM 64.3°F17.9°C 60.6°F15.9°C 88% 14.0 mph S22.5 kmh S 15.0 mph24.1 kmh 24.18 in818.8 mb 0.00 in0.0 mm 0.00 in0.0 mm 0.00 in0.0 mm
07:55 PM 64.3°F17.9°C 60.6°F15.9°C 88% 11.0 mph SW17.7 kmh SW 16.0 mph25.7 kmh 24.18 in818.8 mb 0.00 in0.0 mm 0.00 in0.0 mm 0.00 in0.0 mm
07:50 PM 64.3°F17.9°C 60.6°F15.9°C 88% 7.0 mph SW11.3 kmh SW 15.0 mph24.1 kmh 24.18 in818.8 mb 0.00 in0.0 mm 0.00 in0.0 mm 0.00 in0.0 mm
07:45 PM 64.4°F18.0°C 60.7°F15.9°C 88% 12.0 mph SW19.3 kmh SW 16.0 mph25.7 kmh 24.18 in818.8 mb 0.00 in0.0 mm 0.00 in0.0 mm 0.00 in0.0 mm
07:40 PM 64.4°F18.0°C 60.7°F15.9°C 88% 10.0 mph SW16.1 kmh SW 16.0 mph25.7 kmh 24.18 in818.8 mb 0.00 in0.0 mm 0.00 in0.0 mm 0.00 in0.0 mm
07:35 PM 64.5°F18.1°C 61.1°F16.2°C 89% 9.0 mph SW14.5 kmh SW 15.0 mph24.1 kmh 24.18 in818.8 mb 0.00 in0.0 mm 0.00 in0.0 mm 0.00 in0.0 mm
07:30 PM 64.5°F18.1°C 61.1°F16.2°C 89% 12.0 mph S19.3 kmh S 16.0 mph25.7 kmh 24.18 in818.8 mb 0.00 in0.0 mm 0.00 in0.0 mm 0.00 in0.0 mm
07:25 PM 64.5°F18.1°C 61.1°F16.2°C 89% 9.0 mph S14.5 kmh S 16.0 mph25.7 kmh 24.18 in818.8 mb 0.00 in0.0 mm 0.00 in0.0 mm 0.00 in0.0 mm
07:20 PM 64.5°F18.1°C 60.8°F16.0°C 88% 14.0 mph SSW22.5 kmh SSW 17.0 mph27.4 kmh 24.18 in818.8 mb 0.00 in0.0 mm 0.00 in0.0 mm 0.00 in0.0 mm
07:15 PM 64.7°F18.2°C 61.3°F16.3°C 89% 7.0 mph SSW11.3 kmh SSW 15.0 mph24.1 kmh 24.18 in818.8 mb 0.00 in0.0 mm 0.00 in0.0 mm 0.00 in0.0 mm
07:10 PM 64.6°F18.1°C 60.9°F16.1°C 88% 14.0 mph S22.5 kmh S 16.0 mph25.7 kmh 24.18 in818.8 mb 0.00 in0.0 mm 0.00 in0.0 mm 0.00 in0.0 mm
07:05 PM 64.8°F18.2°C 61.1°F16.2°C 88% 12.0 mph SW19.3 kmh SW 15.0 mph24.1 kmh 24.18 in818.8 mb 0.00 in0.0 mm 0.00 in0.0 mm 0.00 in0.0 mm
07:00 PM 64.8°F18.2°C 60.8°F16.0°C 87% 7.0 mph SW11.3 kmh SW 16.0 mph25.7 kmh 24.18 in818.8 mb 0.00 in0.0 mm 0.00 in0.0 mm 0.00 in0.0 mm
06:55 PM 64.9°F18.3°C 61.2°F16.2°C 88% 9.0 mph SSW14.5 kmh SSW 14.0 mph22.5 kmh 24.18 in818.8 mb 0.00 in0.0 mm 0.00 in0.0 mm 0.00 in0.0 mm
06:50 PM 64.8°F18.2°C 60.8°F16.0°C 87% 13.0 mph SW20.9 kmh SW 18.0 mph29.0 kmh 24.18 in818.8 mb 0.00 in0.0 mm 0.00 in0.0 mm 0.00 in0.0 mm
06:45 PM 64.9°F18.3°C 61.2°F16.2°C 88% 9.0 mph S14.5 kmh S 15.0 mph24.1 kmh 24.18 in818.8 mb 0.00 in0.0 mm 0.00 in0.0 mm 0.00 in0.0 mm
06:40 PM 64.9°F18.3°C 60.9°F16.1°C 87% 10.0 mph SSW16.1 kmh SSW 15.0 mph24.1 kmh 24.18 in818.8 mb 0.00 in0.0 mm 0.00 in0.0 mm 0.00 in0.0 mm
06:35 PM 64.8°F18.2°C 60.8°F16.0°C 87% 9.0 mph S14.5 kmh S 16.0 mph25.7 kmh 24.18 in818.8 mb 0.00 in0.0 mm 0.00 in0.0 mm 0.00 in0.0 mm
06:30 PM 64.8°F18.2°C 60.8°F16.0°C 87% 12.0 mph SSW19.3 kmh SSW 17.0 mph27.4 kmh 24.18 in818.8 mb 0.00 in0.0 mm 0.00 in0.0 mm 0.00 in0.0 mm
06:25 PM 64.8°F18.2°C 61.1°F16.2°C 88% 9.0 mph S14.5 kmh S 17.0 mph27.4 kmh 24.18 in818.8 mb 0.00 in0.0 mm 0.00 in0.0 mm 0.00 in0.0 mm
06:20 PM 64.7°F18.2°C 60.7°F15.9°C 87% 13.0 mph SSW20.9 kmh SSW 17.0 mph27.4 kmh 24.18 in818.8 mb 0.00 in0.0 mm 0.00 in0.0 mm 0.00 in0.0 mm
06:15 PM 64.7°F18.2°C 61.0°F16.1°C 88% 11.0 mph SW17.7 kmh SW 16.0 mph25.7 kmh 24.18 in818.8 mb 0.00 in0.0 mm 0.00 in0.0 mm 0.00 in0.0 mm
06:10 PM 64.6°F18.1°C 60.6°F15.9°C 87% 10.0 mph S16.1 kmh S 16.0 mph25.7 kmh 24.18 in818.8 mb 0.00 in0.0 mm 0.00 in0.0 mm 0.00 in0.0 mm
06:05 PM 64.7°F18.2°C 60.7°F15.9°C 87% 14.0 mph SSW22.5 kmh SSW 14.0 mph22.5 kmh 24.18 in818.8 mb 0.00 in0.0 mm 0.00 in0.0 mm 0.00 in0.0 mm
06:00 PM 64.8°F18.2°C 60.8°F16.0°C 87% 11.0 mph SW17.7 kmh SW 16.0 mph25.7 kmh 24.18 in818.8 mb 0.00 in0.0 mm 0.00 in0.0 mm 0.00 in0.0 mm
05:55 PM 64.9°F18.3°C 60.9°F16.1°C 87% 10.0 mph S16.1 kmh S 15.0 mph24.1 kmh 24.18 in818.8 mb 0.00 in0.0 mm 0.00 in0.0 mm 0.00 in0.0 mm
05:50 PM 64.8°F18.2°C 60.8°F16.0°C 87% 14.0 mph SW22.5 kmh SW 15.0 mph24.1 kmh 24.18 in818.8 mb 0.00 in0.0 mm 0.00 in0.0 mm 0.00 in0.0 mm
05:45 PM 64.9°F18.3°C 60.9°F16.1°C 87% 13.0 mph SSW20.9 kmh SSW 16.0 mph25.7 kmh 24.18 in818.8 mb 0.00 in0.0 mm 0.00 in0.0 mm 0.00 in0.0 mm
05:40 PM 65.0°F18.3°C 60.7°F15.9°C 86% 15.0 mph SSW24.1 kmh SSW 18.0 mph29.0 kmh 24.18 in818.8 mb 0.00 in0.0 mm 0.00 in0.0 mm 0.00 in0.0 mm
05:35 PM 65.2°F18.4°C 60.9°F16.1°C 86% 10.0 mph SSW16.1 kmh SSW 13.0 mph20.9 kmh 24.18 in818.8 mb 0.00 in0.0 mm 0.00 in0.0 mm 0.00 in0.0 mm
05:30 PM 65.1°F18.4°C 60.8°F16.0°C 86% 7.0 mph SSW11.3 kmh SSW 15.0 mph24.1 kmh 24.18 in818.8 mb 0.00 in0.0 mm 0.00 in0.0 mm 0.00 in0.0 mm
05:25 PM 65.1°F18.4°C 60.4°F15.8°C 85% 12.0 mph S19.3 kmh S 15.0 mph24.1 kmh 24.18 in818.8 mb 0.00 in0.0 mm 0.00 in0.0 mm 0.00 in0.0 mm
05:20 PM 65.3°F18.5°C 60.9°F16.1°C 86% 11.0 mph SW17.7 kmh SW 15.0 mph24.1 kmh 24.18 in818.8 mb 0.00 in0.0 mm 0.00 in0.0 mm 0.00 in0.0 mm
05:15 PM 65.3°F18.5°C 60.9°F16.1°C 86% 13.0 mph S20.9 kmh S 15.0 mph24.1 kmh 24.18 in818.8 mb 0.00 in0.0 mm 0.00 in0.0 mm 0.00 in0.0 mm
05:10 PM 65.6°F18.7°C 60.9°F16.1°C 85% 14.0 mph SSW22.5 kmh SSW 18.0 mph29.0 kmh 24.18 in818.8 mb 0.00 in0.0 mm 0.00 in0.0 mm 0.00 in0.0 mm
05:05 PM 65.9°F18.8°C 61.2°F16.2°C 85% 11.0 mph SW17.7 kmh SW 14.0 mph22.5 kmh 24.18 in818.8 mb 0.00 in0.0 mm 0.00 in0.0 mm 0.00 in0.0 mm
05:00 PM 65.5°F18.6°C 60.8°F16.0°C 85% 11.0 mph SSW17.7 kmh SSW 14.0 mph22.5 kmh 24.18 in818.8 mb 0.00 in0.0 mm 0.00 in0.0 mm 0.00 in0.0 mm
04:55 PM 65.6°F18.7°C 61.2°F16.2°C 86% 12.0 mph SW19.3 kmh SW 14.0 mph22.5 kmh 24.18 in818.8 mb 0.00 in0.0 mm 0.00 in0.0 mm 0.00 in0.0 mm
04:50 PM 65.0°F18.3°C 60.3°F15.7°C 85% 14.0 mph S22.5 kmh S 16.0 mph25.7 kmh 24.18 in818.8 mb 0.00 in0.0 mm 0.00 in0.0 mm 0.00 in0.0 mm
04:45 PM 65.2°F18.4°C 60.9°F16.1°C 86% 16.0 mph S25.7 kmh S 17.0 mph27.4 kmh 24.18 in818.8 mb 0.00 in0.0 mm 0.00 in0.0 mm 0.00 in0.0 mm
04:40 PM 65.2°F18.4°C 60.5°F15.8°C 85% 12.0 mph S19.3 kmh S 15.0 mph24.1 kmh 24.18 in818.8 mb 0.00 in0.0 mm 0.00 in0.0 mm 0.00 in0.0 mm
04:35 PM 65.3°F18.5°C 60.6°F15.9°C 85% 14.0 mph SW22.5 kmh SW 15.0 mph24.1 kmh 24.18 in818.8 mb 0.00 in0.0 mm 0.00 in0.0 mm 0.00 in0.0 mm
04:30 PM 65.4°F18.6°C 60.7°F15.9°C 85% 7.0 mph S11.3 kmh S 14.0 mph22.5 kmh 24.18 in818.8 mb 0.00 in0.0 mm 0.00 in0.0 mm 0.00 in0.0 mm
04:25 PM 65.3°F18.5°C 60.6°F15.9°C 85% 7.0 mph SSW11.3 kmh SSW 14.0 mph22.5 kmh 24.18 in818.8 mb 0.00 in0.0 mm 0.00 in0.0 mm 0.00 in0.0 mm
04:20 PM 65.2°F18.4°C 60.2°F15.7°C 84% 6.0 mph S9.7 kmh S 14.0 mph22.5 kmh 24.18 in818.8 mb 0.00 in0.0 mm 0.00 in0.0 mm 0.00 in0.0 mm
04:15 PM 65.2°F18.4°C 60.5°F15.8°C 85% 6.0 mph SW9.7 kmh SW 13.0 mph20.9 kmh 24.18 in818.8 mb 0.00 in0.0 mm 0.00 in0.0 mm 0.00 in0.0 mm
04:10 PM 65.0°F18.3°C 60.3°F15.7°C 85% 6.0 mph SW9.7 kmh SW 14.0 mph22.5 kmh 24.18 in818.8 mb 0.00 in0.0 mm 0.00 in0.0 mm 0.00 in0.0 mm
04:05 PM 65.3°F18.5°C 60.6°F15.9°C 85% 13.0 mph S20.9 kmh S 13.0 mph20.9 kmh 24.18 in818.8 mb 0.00 in0.0 mm 0.00 in0.0 mm 0.00 in0.0 mm
04:00 PM 65.3°F18.5°C 60.6°F15.9°C 85% 9.0 mph WSW14.5 kmh WSW 14.0 mph22.5 kmh 24.18 in818.8 mb 0.00 in0.0 mm 0.00 in0.0 mm 0.00 in0.0 mm
03:55 PM 65.1°F18.4°C 60.1°F15.6°C 84% 8.0 mph SW12.9 kmh SW 15.0 mph24.1 kmh 24.18 in818.8 mb 0.00 in0.0 mm 0.00 in0.0 mm 0.00 in0.0 mm
03:50 PM 65.4°F18.6°C 60.4°F15.8°C 84% 11.0 mph S17.7 kmh S 13.0 mph20.9 kmh 24.18 in818.8 mb 0.00 in0.0 mm 0.00 in0.0 mm 0.00 in0.0 mm
03:45 PM 65.3°F18.5°C 60.3°F15.7°C 84% 6.0 mph SW9.7 kmh SW 13.0 mph20.9 kmh 24.18 in818.8 mb 0.00 in0.0 mm 0.00 in0.0 mm 0.00 in0.0 mm
03:40 PM 65.4°F18.6°C 60.4°F15.8°C 84% 7.0 mph S11.3 kmh S 13.0 mph20.9 kmh 24.18 in818.8 mb 0.00 in0.0 mm 0.00 in0.0 mm 0.00 in0.0 mm
03:35 PM 65.8°F18.8°C 60.4°F15.8°C 83% 9.0 mph SW14.5 kmh SW 11.0 mph17.7 kmh 24.18 in818.8 mb 0.00 in0.0 mm 0.00 in0.0 mm 0.00 in0.0 mm
03:30 PM 65.8°F18.8°C 60.8°F16.0°C 84% 9.0 mph SW14.5 kmh SW 12.0 mph19.3 kmh 24.18 in818.8 mb 0.00 in0.0 mm 0.00 in0.0 mm 0.00 in0.0 mm
03:25 PM 65.4°F18.6°C 60.0°F15.6°C 83% 11.0 mph WSW17.7 kmh WSW 14.0 mph22.5 kmh 24.18 in818.8 mb 0.00 in0.0 mm 0.00 in0.0 mm 0.00 in0.0 mm
03:20 PM 64.9°F18.3°C 59.6°F15.3°C 83% 11.0 mph S17.7 kmh S 13.0 mph20.9 kmh 24.18 in818.8 mb 0.00 in0.0 mm 0.00 in0.0 mm 0.00 in0.0 mm
03:15 PM 64.9°F18.3°C 59.6°F15.3°C 83% 7.0 mph SW11.3 kmh SW 16.0 mph25.7 kmh 24.18 in818.8 mb 0.00 in0.0 mm 0.00 in0.0 mm 0.00 in0.0 mm
03:10 PM 65.1°F18.4°C 59.8°F15.4°C 83% 10.0 mph SW16.1 kmh SW 14.0 mph22.5 kmh 24.18 in818.8 mb 0.00 in0.0 mm 0.00 in0.0 mm 0.00 in0.0 mm
03:05 PM 64.8°F18.2°C 59.5°F15.3°C 83% 12.0 mph WSW19.3 kmh WSW 14.0 mph22.5 kmh 24.18 in818.8 mb 0.00 in0.0 mm 0.00 in0.0 mm 0.00 in0.0 mm
03:00 PM 65.2°F18.4°C 59.2°F15.1°C 81% 12.0 mph WSW19.3 kmh WSW 16.0 mph25.7 kmh 24.18 in818.8 mb 0.00 in0.0 mm 0.00 in0.0 mm 0.00 in0.0 mm
02:55 PM 66.1°F18.9°C 60.4°F15.8°C 82% 11.0 mph SW17.7 kmh SW 14.0 mph22.5 kmh 24.18 in818.8 mb 0.00 in0.0 mm 0.00 in0.0 mm 0.00 in0.0 mm
02:50 PM 65.9°F18.8°C 59.8°F15.4°C 81% 12.0 mph SW19.3 kmh SW 15.0 mph24.1 kmh 24.18 in818.8 mb 0.00 in0.0 mm 0.00 in0.0 mm 0.00 in0.0 mm
02:45 PM 65.5°F18.6°C 59.8°F15.4°C 82% 9.0 mph SW14.5 kmh SW 15.0 mph24.1 kmh 24.18 in818.8 mb 0.00 in0.0 mm 0.00 in0.0 mm 0.00 in0.0 mm
02:40 PM 66.0°F18.9°C 60.6°F15.9°C 83% 13.0 mph SW20.9 kmh SW 14.0 mph22.5 kmh 24.18 in818.8 mb 0.00 in0.0 mm 0.00 in0.0 mm 0.00 in0.0 mm
02:35 PM 65.3°F18.5°C 60.6°F15.9°C 85% 9.0 mph SW14.5 kmh SW 18.0 mph29.0 kmh 24.18 in818.8 mb 0.00 in0.0 mm 0.00 in0.0 mm 0.00 in0.0 mm
02:30 PM 65.1°F18.4°C 60.4°F15.8°C 85% 11.0 mph SW17.7 kmh SW 17.0 mph27.4 kmh 24.18 in818.8 mb 0.00 in0.0 mm 0.00 in0.0 mm 0.00 in0.0 mm
02:25 PM 65.1°F18.4°C 60.4°F15.8°C 85% 12.0 mph WSW19.3 kmh WSW 17.0 mph27.4 kmh 24.18 in818.8 mb 0.00 in0.0 mm 0.00 in0.0 mm 0.00 in0.0 mm
02:20 PM 65.1°F18.4°C 59.8°F15.4°C 83% 12.0 mph SSW19.3 kmh SSW 16.0 mph25.7 kmh 24.18 in818.8 mb 0.00 in0.0 mm 0.00 in0.0 mm 0.00 in0.0 mm
02:15 PM 64.7°F18.2°C 60.0°F15.6°C 85% 13.0 mph WSW20.9 kmh WSW 15.0 mph24.1 kmh 24.18 in818.8 mb 0.00 in0.0 mm 0.00 in0.0 mm 0.00 in0.0 mm
02:10 PM 64.9°F18.3°C 59.9°F15.5°C 84% 12.0 mph WSW19.3 kmh WSW 15.0 mph24.1 kmh 24.18 in818.8 mb 0.00 in0.0 mm 0.00 in0.0 mm 0.00 in0.0 mm
02:05 PM 64.7°F18.2°C 60.4°F15.8°C 86% 11.0 mph WSW17.7 kmh WSW 15.0 mph24.1 kmh 24.18 in818.8 mb 0.00 in0.0 mm 0.00 in0.0 mm 0.00 in0.0 mm
02:00 PM 64.5°F18.1°C 60.2°F15.7°C 86% 10.0 mph S16.1 kmh S 15.0 mph24.1 kmh 24.18 in818.8 mb 0.00 in0.0 mm 0.00 in0.0 mm 0.00 in0.0 mm
01:55 PM 64.5°F18.1°C 59.8°F15.4°C 85% 10.0 mph SW16.1 kmh SW 17.0 mph27.4 kmh 24.18 in818.8 mb 0.00 in0.0 mm 0.00 in0.0 mm 0.00 in0.0 mm
01:50 PM 65.1°F18.4°C 60.4°F15.8°C 85% 7.0 mph SW11.3 kmh SW 14.0 mph22.5 kmh 24.18 in818.8 mb 0.00 in0.0 mm 0.00 in0.0 mm 0.00 in0.0 mm
01:45 PM 65.1°F18.4°C 60.8°F16.0°C 86% 14.0 mph SSW22.5 kmh SSW 15.0 mph24.1 kmh 24.18 in818.8 mb 0.00 in0.0 mm 0.00 in0.0 mm 0.00 in0.0 mm
01:40 PM 64.8°F18.2°C 60.8°F16.0°C 87% 11.0 mph WSW17.7 kmh WSW 14.0 mph22.5 kmh 24.18 in818.8 mb 0.00 in0.0 mm 0.00 in0.0 mm 0.00 in0.0 mm
01:35 PM 64.7°F18.2°C 60.4°F15.8°C 86% 11.0 mph WSW17.7 kmh WSW 16.0 mph25.7 kmh 24.18 in818.8 mb 0.00 in0.0 mm 0.00 in0.0 mm 0.00 in0.0 mm
01:30 PM 64.5°F18.1°C 60.2°F15.7°C 86% 10.0 mph WSW16.1 kmh WSW 15.0 mph24.1 kmh 24.31 in823.2 mb 0.00 in0.0 mm 0.00 in0.0 mm 0.00 in0.0 mm
01:25 PM 64.4°F18.0°C 60.1°F15.6°C 86% 13.0 mph WSW20.9 kmh WSW 16.0 mph25.7 kmh 24.32 in823.6 mb 0.00 in0.0 mm 0.00 in0.0 mm 0.00 in0.0 mm
01:20 PM 64.2°F17.9°C 59.9°F15.5°C 86% 13.0 mph WSW20.9 kmh WSW 17.0 mph27.4 kmh 24.32 in823.6 mb 0.00 in0.0 mm 0.00 in0.0 mm 0.00 in0.0 mm
01:15 PM 64.5°F18.1°C 60.2°F15.7°C 86% 13.0 mph SW20.9 kmh SW 15.0 mph24.1 kmh 24.32 in823.6 mb 0.00 in0.0 mm 0.00 in0.0 mm 0.00 in0.0 mm
01:10 PM 64.5°F18.1°C 60.2°F15.7°C 86% 11.0 mph SW17.7 kmh SW 16.0 mph25.7 kmh 24.30 in822.9 mb 0.00 in0.0 mm 0.00 in0.0 mm 0.00 in0.0 mm
01:05 PM 64.8°F18.2°C 60.8°F16.0°C 87% 9.0 mph SW14.5 kmh SW 15.0 mph24.1 kmh 24.31 in823.2 mb 0.00 in0.0 mm 0.00 in0.0 mm 0.00 in0.0 mm
01:00 PM 64.8°F18.2°C 60.5°F15.8°C 86% 14.0 mph WSW22.5 kmh WSW 16.0 mph25.7 kmh 24.32 in823.6 mb 0.00 in0.0 mm 0.00 in0.0 mm 0.00 in0.0 mm
12:55 PM 65.1°F18.4°C 60.8°F16.0°C 86% 12.0 mph SW19.3 kmh SW 13.0 mph20.9 kmh 24.30 in822.9 mb 0.00 in0.0 mm 0.00 in0.0 mm 0.00 in0.0 mm
12:50 PM 64.8°F18.2°C 60.8°F16.0°C 87% 10.0 mph SW16.1 kmh SW 15.0 mph24.1 kmh 24.31 in823.2 mb 0.00 in0.0 mm 0.00 in0.0 mm 0.00 in0.0 mm
12:45 PM 64.5°F18.1°C 60.8°F16.0°C 88% 10.0 mph WSW16.1 kmh WSW 14.0 mph22.5 kmh 24.31 in823.2 mb 0.00 in0.0 mm 0.00 in0.0 mm 0.00 in0.0 mm
12:40 PM 64.1°F17.8°C 60.1°F15.6°C 87% 11.0 mph WSW17.7 kmh WSW 14.0 mph22.5 kmh 24.30 in822.9 mb 0.00 in0.0 mm 0.00 in0.0 mm 0.00 in0.0 mm
12:35 PM 64.1°F17.8°C 60.1°F15.6°C 87% 13.0 mph SW20.9 kmh SW 15.0 mph24.1 kmh 24.30 in822.9 mb 0.00 in0.0 mm 0.00 in0.0 mm 0.00 in0.0 mm
12:30 PM 64.1°F17.8°C 60.4°F15.8°C 88% 9.0 mph SW14.5 kmh SW 14.0 mph22.5 kmh 24.30 in822.9 mb 0.00 in0.0 mm 0.00 in0.0 mm 0.00 in0.0 mm
12:25 PM 64.2°F17.9°C 60.5°F15.8°C 88% 11.0 mph WSW17.7 kmh WSW 15.0 mph24.1 kmh 24.30 in822.9 mb 0.00 in0.0 mm 0.00 in0.0 mm 0.00 in0.0 mm
12:20 PM 64.6°F18.1°C 60.6°F15.9°C 87% 15.0 mph SW24.1 kmh SW 16.0 mph25.7 kmh 24.30 in822.9 mb 0.00 in0.0 mm 0.00 in0.0 mm 0.00 in0.0 mm
12:15 PM 64.9°F18.3°C 60.9°F16.1°C 87% 14.0 mph WSW22.5 kmh WSW 16.0 mph25.7 kmh 24.30 in822.9 mb 0.00 in0.0 mm 0.00 in0.0 mm 0.00 in0.0 mm
12:10 PM 64.7°F18.2°C 60.4°F15.8°C 86% 7.0 mph WSW11.3 kmh WSW 15.0 mph24.1 kmh 24.30 in822.9 mb 0.00 in0.0 mm 0.00 in0.0 mm 0.00 in0.0 mm
12:05 PM 64.8°F18.2°C 60.5°F15.8°C 86% 10.0 mph SW16.1 kmh SW 14.0 mph22.5 kmh 24.30 in822.9 mb 0.00 in0.0 mm 0.00 in0.0 mm 0.00 in0.0 mm
12:00 PM 64.7°F18.2°C 60.4°F15.8°C 86% 11.0 mph WSW17.7 kmh WSW 14.0 mph22.5 kmh 24.30 in822.9 mb 0.00 in0.0 mm 0.00 in0.0 mm 0.00 in0.0 mm
11:55 AM 64.6°F18.1°C 60.3°F15.7°C 86% 7.0 mph SSW11.3 kmh SSW 15.0 mph24.1 kmh 24.30 in822.9 mb 0.00 in0.0 mm 0.00 in0.0 mm 0.00 in0.0 mm
11:50 AM 64.7°F18.2°C 60.7°F15.9°C 87% 12.0 mph S19.3 kmh S 14.0 mph22.5 kmh 24.30 in822.9 mb 0.00 in0.0 mm 0.00 in0.0 mm 0.00 in0.0 mm
11:45 AM 64.6°F18.1°C 60.6°F15.9°C 87% 14.0 mph WSW22.5 kmh WSW 15.0 mph24.1 kmh 24.30 in822.9 mb 0.00 in0.0 mm 0.00 in0.0 mm 0.00 in0.0 mm
11:40 AM 64.3°F17.9°C 60.3°F15.7°C 87% 6.0 mph W9.7 kmh W 15.0 mph24.1 kmh 24.30 in822.9 mb 0.00 in0.0 mm 0.00 in0.0 mm 0.00 in0.0 mm
11:35 AM 64.2°F17.9°C 59.9°F15.5°C 86% 10.0 mph WSW16.1 kmh WSW 14.0 mph22.5 kmh 24.30 in822.9 mb 0.00 in0.0 mm 0.00 in0.0 mm 0.00 in0.0 mm
11:30 AM 64.2°F17.9°C 60.2°F15.7°C 87% 5.0 mph SSW8.0 kmh SSW 14.0 mph22.5 kmh 24.30 in822.9 mb 0.00 in0.0 mm 0.00 in0.0 mm 0.00 in0.0 mm
11:25 AM 64.0°F17.8°C 60.0°F15.6°C 87% 10.0 mph SW16.1 kmh SW 13.0 mph20.9 kmh 24.30 in822.9 mb 0.00 in0.0 mm 0.00 in0.0 mm 0.00 in0.0 mm
11:20 AM 63.9°F17.7°C 59.9°F15.5°C 87% 10.0 mph SW16.1 kmh SW 14.0 mph22.5 kmh 24.30 in822.9 mb 0.00 in0.0 mm 0.00 in0.0 mm 0.00 in0.0 mm
11:15 AM 64.0°F17.8°C 60.0°F15.6°C 87% 9.0 mph SSW14.5 kmh SSW 13.0 mph20.9 kmh 24.30 in822.9 mb 0.00 in0.0 mm 0.00 in0.0 mm 0.00 in0.0 mm
11:10 AM 64.0°F17.8°C 59.7°F15.4°C 86% 9.0 mph WSW14.5 kmh WSW 11.0 mph17.7 kmh 24.30 in822.9 mb 0.00 in0.0 mm 0.00 in0.0 mm 0.00 in0.0 mm
11:05 AM 64.3°F17.9°C 60.0°F15.6°C 86% 3.0 mph WSW4.8 kmh WSW 11.0 mph17.7 kmh 24.30 in822.9 mb 0.00 in0.0 mm 0.00 in0.0 mm 0.00 in0.0 mm
11:00 AM 64.4°F18.0°C 59.7°F15.4°C 85% 6.0 mph SW9.7 kmh SW 12.0 mph19.3 kmh 24.30 in822.9 mb 0.00 in0.0 mm 0.00 in0.0 mm 0.00 in0.0 mm
10:55 AM 64.9°F18.3°C 59.9°F15.5°C 84% 10.0 mph WSW16.1 kmh WSW 11.0 mph17.7 kmh 24.28 in822.2 mb 0.00 in0.0 mm 0.00 in0.0 mm 0.00 in0.0 mm
10:50 AM 64.4°F18.0°C 59.7°F15.4°C 85% 7.0 mph W11.3 kmh W 11.0 mph17.7 kmh 24.27 in821.9 mb 0.00 in0.0 mm 0.00 in0.0 mm 0.00 in0.0 mm
10:45 AM 64.2°F17.9°C 59.9°F15.5°C 86% 7.0 mph SW11.3 kmh SW 11.0 mph17.7 kmh 24.30 in822.9 mb 0.00 in0.0 mm 0.00 in0.0 mm 0.00 in0.0 mm
10:40 AM 64.2°F17.9°C 59.5°F15.3°C 85% 7.0 mph WSW11.3 kmh WSW 10.0 mph16.1 kmh 24.28 in822.2 mb 0.00 in0.0 mm 0.00 in0.0 mm 0.00 in0.0 mm
10:35 AM 64.4°F18.0°C 59.7°F15.4°C 85% 7.0 mph WSW11.3 kmh WSW 12.0 mph19.3 kmh 24.30 in822.9 mb 0.00 in0.0 mm 0.00 in0.0 mm 0.00 in0.0 mm
10:30 AM 65.1°F18.4°C 60.1°F15.6°C 84% 7.0 mph SW11.3 kmh SW 11.0 mph17.7 kmh 24.32 in823.6 mb 0.00 in0.0 mm 0.00 in0.0 mm 0.00 in0.0 mm
10:25 AM 64.9°F18.3°C 59.9°F15.5°C 84% 5.0 mph WSW8.0 kmh WSW 11.0 mph17.7 kmh 24.35 in824.6 mb 0.00 in0.0 mm 0.00 in0.0 mm 0.00 in0.0 mm
10:20 AM 64.4°F18.0°C 59.4°F15.2°C 84% 9.0 mph W14.5 kmh W 14.0 mph22.5 kmh 24.29 in822.6 mb 0.00 in0.0 mm 0.00 in0.0 mm 0.00 in0.0 mm
10:15 AM 64.3°F17.9°C 58.6°F14.8°C 82% 12.0 mph WSW19.3 kmh WSW 13.0 mph20.9 kmh 24.22 in820.2 mb 0.00 in0.0 mm 0.00 in0.0 mm 0.00 in0.0 mm
10:10 AM 64.5°F18.1°C 59.2°F15.1°C 83% 8.0 mph WSW12.9 kmh WSW 11.0 mph17.7 kmh 24.30 in822.9 mb 0.00 in0.0 mm 0.00 in0.0 mm 0.00 in0.0 mm
10:05 AM 64.1°F17.8°C 58.1°F14.5°C 81% 6.0 mph WSW9.7 kmh WSW 12.0 mph19.3 kmh 24.26 in821.5 mb 0.00 in0.0 mm 0.00 in0.0 mm 0.00 in0.0 mm
10:00 AM 63.9°F17.7°C 58.2°F14.6°C 82% 11.0 mph W17.7 kmh W 12.0 mph19.3 kmh 24.24 in820.9 mb 0.00 in0.0 mm 0.00 in0.0 mm 0.00 in0.0 mm
09:55 AM 64.1°F17.8°C 58.1°F14.5°C 81% 6.0 mph WSW9.7 kmh WSW 12.0 mph19.3 kmh 24.26 in821.5 mb 0.00 in0.0 mm 0.00 in0.0 mm 0.00 in0.0 mm
09:50 AM 63.7°F17.6°C 57.7°F14.3°C 81% 8.0 mph SSW12.9 kmh SSW 11.0 mph17.7 kmh 24.26 in821.5 mb 0.00 in0.0 mm 0.00 in0.0 mm 0.00 in0.0 mm
09:45 AM 63.5°F17.5°C 57.2°F14.0°C 80% 7.0 mph W11.3 kmh W 10.0 mph16.1 kmh 24.28 in822.2 mb 0.00 in0.0 mm 0.00 in0.0 mm 0.00 in0.0 mm
09:40 AM 63.5°F17.5°C 57.5°F14.2°C 81% 6.0 mph WSW9.7 kmh WSW 11.0 mph17.7 kmh 24.28 in822.2 mb 0.00 in0.0 mm 0.00 in0.0 mm 0.00 in0.0 mm
09:35 AM 63.1°F17.3°C 57.1°F13.9°C 81% 7.0 mph WSW11.3 kmh WSW 11.0 mph17.7 kmh 24.27 in821.9 mb 0.00 in0.0 mm 0.00 in0.0 mm 0.00 in0.0 mm
09:30 AM 63.1°F17.3°C 57.1°F13.9°C 81% 8.0 mph SW12.9 kmh SW 11.0 mph17.7 kmh 24.12 in816.8 mb 0.00 in0.0 mm 0.00 in0.0 mm 0.00 in0.0 mm
09:25 AM 63.0°F17.2°C 57.4°F14.1°C 82% 9.0 mph SW14.5 kmh SW 11.0 mph17.7 kmh 24.12 in816.8 mb 0.00 in0.0 mm 0.00 in0.0 mm 0.00 in0.0 mm
09:20 AM 62.8°F17.1°C 58.2°F14.6°C 85% 10.0 mph WSW16.1 kmh WSW 11.0 mph17.7 kmh 24.29 in822.6 mb 0.00 in0.0 mm 0.00 in0.0 mm 0.00 in0.0 mm
09:15 AM 62.6°F17.0°C 58.0°F14.4°C 85% 4.0 mph S6.4 kmh S 12.0 mph19.3 kmh 24.48 in829.0 mb 0.00 in0.0 mm 0.00 in0.0 mm 0.00 in0.0 mm
09:10 AM 62.4°F16.9°C 58.4°F14.7°C 87% 5.0 mph SW8.0 kmh SW 11.0 mph17.7 kmh 24.41 in826.6 mb 0.00 in0.0 mm 0.00 in0.0 mm 0.00 in0.0 mm
09:05 AM 62.5°F16.9°C 58.5°F14.7°C 87% 10.0 mph SSW16.1 kmh SSW 11.0 mph17.7 kmh 24.41 in826.6 mb 0.00 in0.0 mm 0.00 in0.0 mm 0.00 in0.0 mm
09:00 AM 62.4°F16.9°C 58.7°F14.8°C 88% 6.0 mph S9.7 kmh S 12.0 mph19.3 kmh 24.41 in826.6 mb 0.00 in0.0 mm 0.00 in0.0 mm 0.00 in0.0 mm
08:55 AM 62.4°F16.9°C 59.1°F15.1°C 89% 7.0 mph S11.3 kmh S 13.0 mph20.9 kmh 24.41 in826.6 mb 0.00 in0.0 mm 0.00 in0.0 mm 0.00 in0.0 mm
08:50 AM 62.4°F16.9°C 59.1°F15.1°C 89% 9.0 mph S14.5 kmh S 12.0 mph19.3 kmh 24.44 in827.6 mb 0.00 in0.0 mm 0.00 in0.0 mm 0.00 in0.0 mm
08:45 AM 62.5°F16.9°C 59.5°F15.3°C 90% 4.0 mph S6.4 kmh S 11.0 mph17.7 kmh 24.44 in827.6 mb 0.00 in0.0 mm 0.00 in0.0 mm 0.00 in0.0 mm
08:40 AM 62.4°F16.9°C 59.7°F15.4°C 91% 5.0 mph SSE8.0 kmh SSE 10.0 mph16.1 kmh 24.54 in831.0 mb 0.00 in0.0 mm 0.00 in0.0 mm 0.00 in0.0 mm
08:35 AM 62.1°F16.7°C 59.7°F15.4°C 92% 7.0 mph SSE11.3 kmh SSE 11.0 mph17.7 kmh 24.54 in831.0 mb 0.00 in0.0 mm 0.00 in0.0 mm 0.00 in0.0 mm
08:30 AM 61.8°F16.6°C 59.4°F15.2°C 92% 4.0 mph S6.4 kmh S 10.0 mph16.1 kmh 24.54 in831.0 mb 0.00 in0.0 mm 0.00 in0.0 mm 0.00 in0.0 mm
08:25 AM 61.5°F16.4°C 59.1°F15.1°C 92% 7.0 mph SSE11.3 kmh SSE 13.0 mph20.9 kmh 24.54 in831.0 mb 0.00 in0.0 mm 0.00 in0.0 mm 0.00 in0.0 mm
08:20 AM 61.4°F16.3°C 59.0°F15.0°C 92% 7.0 mph SE11.3 kmh SE 11.0 mph17.7 kmh 24.50 in829.7 mb 0.00 in0.0 mm 0.00 in0.0 mm 0.00 in0.0 mm
08:15 AM 61.2°F16.2°C 59.1°F15.1°C 93% 6.0 mph SE9.7 kmh SE 10.0 mph16.1 kmh 24.50 in829.7 mb 0.00 in0.0 mm 0.00 in0.0 mm 0.00 in0.0 mm
08:10 AM 61.1°F16.2°C 59.0°F15.0°C 93% 5.0 mph ESE8.0 kmh ESE 10.0 mph16.1 kmh 24.50 in829.7 mb 0.00 in0.0 mm 0.00 in0.0 mm 0.00 in0.0 mm
08:05 AM 61.0°F16.1°C 59.2°F15.1°C 94% 6.0 mph SE9.7 kmh SE 10.0 mph16.1 kmh 24.44 in827.6 mb 0.00 in0.0 mm 0.00 in0.0 mm 0.00 in0.0 mm
08:00 AM 60.7°F15.9°C 58.9°F14.9°C 94% 4.0 mph SE6.4 kmh SE 10.0 mph16.1 kmh 24.40 in826.3 mb 0.00 in0.0 mm 0.00 in0.0 mm 0.00 in0.0 mm
07:55 AM 60.6°F15.9°C 58.8°F14.9°C 94% 9.0 mph SE14.5 kmh SE 10.0 mph16.1 kmh 24.40 in826.3 mb 0.00 in0.0 mm 0.00 in0.0 mm 0.00 in0.0 mm
07:50 AM 60.4°F15.8°C 58.6°F14.8°C 94% 9.0 mph SE14.5 kmh SE 9.0 mph14.5 kmh 24.40 in826.3 mb 0.00 in0.0 mm 0.00 in0.0 mm 0.00 in0.0 mm
07:45 AM 60.4°F15.8°C 58.6°F14.8°C 94% 4.0 mph SE6.4 kmh SE 7.0 mph11.3 kmh 24.40 in826.3 mb 0.00 in0.0 mm 0.00 in0.0 mm 0.00 in0.0 mm
07:40 AM 60.3°F15.7°C 58.5°F14.7°C 94% 1.0 mph S1.6 kmh S 7.0 mph11.3 kmh 24.38 in825.6 mb 0.00 in0.0 mm 0.00 in0.0 mm 0.00 in0.0 mm
07:35 AM 60.3°F15.7°C 58.5°F14.7°C 94% 1.0 mph SE1.6 kmh SE 7.0 mph11.3 kmh 24.38 in825.6 mb 0.00 in0.0 mm 0.00 in0.0 mm 0.00 in0.0 mm
07:30 AM 60.3°F15.7°C 58.8°F14.9°C 95% 4.0 mph SE6.4 kmh SE 10.0 mph16.1 kmh 24.30 in822.9 mb 0.00 in0.0 mm 0.00 in0.0 mm 0.00 in0.0 mm
07:25 AM 60.3°F15.7°C 58.8°F14.9°C 95% 3.0 mph SE4.8 kmh SE 7.0 mph11.3 kmh 24.34 in824.2 mb 0.00 in0.0 mm 0.00 in0.0 mm 0.00 in0.0 mm
07:20 AM 60.3°F15.7°C 58.8°F14.9°C 95% 1.0 mph SE1.6 kmh SE 6.0 mph9.7 kmh 24.47 in828.6 mb 0.00 in0.0 mm 0.00 in0.0 mm 0.00 in0.0 mm
07:15 AM 60.1°F15.6°C 58.6°F14.8°C 95% 5.0 mph SE8.0 kmh SE 7.0 mph11.3 kmh 24.41 in826.6 mb 0.00 in0.0 mm 0.00 in0.0 mm 0.00 in0.0 mm
07:10 AM 157.9°F69.9°C 157.8°F69.9°C 100% 2.0 mph E3.2 kmh E -- 24.42 in827.0 mb 0.00 in0.0 mm 0.00 in0.0 mm 0.00 in0.0 mm
07:05 AM 157.9°F69.9°C 157.8°F69.9°C 100% 2.0 mph E3.2 kmh E -- 24.42 in827.0 mb 0.00 in0.0 mm 0.00 in0.0 mm 0.00 in0.0 mm
07:00 AM 157.9°F69.9°C 157.8°F69.9°C 100% 2.0 mph E3.2 kmh E -- 24.42 in827.0 mb 0.00 in0.0 mm 0.00 in0.0 mm 0.00 in0.0 mm
06:55 AM 157.9°F69.9°C 157.8°F69.9°C 100% 2.0 mph E3.2 kmh E -- 24.42 in827.0 mb 0.00 in0.0 mm 0.00 in0.0 mm 0.00 in0.0 mm
06:50 AM 157.9°F69.9°C 157.8°F69.9°C 100% 2.0 mph E3.2 kmh E -- 24.30 in822.9 mb 0.00 in0.0 mm 0.00 in0.0 mm 0.00 in0.0 mm
06:45 AM 157.9°F69.9°C 157.8°F69.9°C 100% 2.0 mph E3.2 kmh E -- 24.19 in819.2 mb 0.00 in0.0 mm 0.00 in0.0 mm 0.00 in0.0 mm
06:40 AM 157.9°F69.9°C 157.8°F69.9°C 100% 2.0 mph E3.2 kmh E -- 24.20 in819.5 mb 0.00 in0.0 mm 0.00 in0.0 mm 0.00 in0.0 mm
06:35 AM 157.9°F69.9°C 157.8°F69.9°C 100% 2.0 mph E3.2 kmh E -- 24.20 in819.5 mb 0.00 in0.0 mm 0.00 in0.0 mm 0.00 in0.0 mm
06:30 AM 157.9°F69.9°C 157.8°F69.9°C 100% 2.0 mph E3.2 kmh E -- 24.21 in819.8 mb 0.00 in0.0 mm 0.00 in0.0 mm 0.00 in0.0 mm
06:25 AM 157.9°F69.9°C 157.8°F69.9°C 100% 2.0 mph E3.2 kmh E -- 24.34 in824.2 mb 0.00 in0.0 mm 0.00 in0.0 mm 0.00 in0.0 mm
06:20 AM 157.9°F69.9°C 157.8°F69.9°C 100% 2.0 mph E3.2 kmh E -- 24.34 in824.2 mb 0.00 in0.0 mm 0.00 in0.0 mm 0.00 in0.0 mm
06:15 AM 157.9°F69.9°C 157.8°F69.9°C 100% 2.0 mph E3.2 kmh E -- 24.20 in819.5 mb 0.00 in0.0 mm 0.00 in0.0 mm 0.00 in0.0 mm
06:10 AM 157.9°F69.9°C 157.8°F69.9°C 100% 2.0 mph E3.2 kmh E -- 24.29 in822.6 mb 0.00 in0.0 mm 0.00 in0.0 mm 0.00 in0.0 mm
06:05 AM 157.9°F69.9°C 157.8°F69.9°C 100% 2.0 mph E3.2 kmh E -- 24.29 in822.6 mb 0.00 in0.0 mm 0.00 in0.0 mm 0.00 in0.0 mm
06:00 AM 157.9°F69.9°C 157.8°F69.9°C 100% 2.0 mph E3.2 kmh E -- 24.29 in822.6 mb 0.00 in0.0 mm 0.00 in0.0 mm 0.00 in0.0 mm
05:55 AM 157.9°F69.9°C 157.8°F69.9°C 100% 2.0 mph E3.2 kmh E -- 24.29 in822.6 mb 0.00 in0.0 mm 0.00 in0.0 mm 0.00 in0.0 mm
05:50 AM 157.9°F69.9°C 157.8°F69.9°C 100% 2.0 mph E3.2 kmh E -- 24.29 in822.6 mb 0.00 in0.0 mm 0.00 in0.0 mm 0.00 in0.0 mm
05:45 AM 157.9°F69.9°C 157.8°F69.9°C 100% 2.0 mph E3.2 kmh E -- 24.30 in822.9 mb 0.00 in0.0 mm 0.00 in0.0 mm 0.00 in0.0 mm
05:40 AM 157.9°F69.9°C 157.8°F69.9°C 100% 2.0 mph E3.2 kmh E -- 24.30 in822.9 mb 0.00 in0.0 mm 0.00 in0.0 mm 0.00 in0.0 mm
05:35 AM 157.9°F69.9°C 157.8°F69.9°C 100% 2.0 mph E3.2 kmh E -- 24.30 in822.9 mb 0.00 in0.0 mm 0.00 in0.0 mm 0.00 in0.0 mm
05:30 AM 157.9°F69.9°C 157.8°F69.9°C 100% 2.0 mph E3.2 kmh E -- 24.30 in822.9 mb 0.00 in0.0 mm 0.00 in0.0 mm 0.00 in0.0 mm
05:25 AM 157.9°F69.9°C 157.8°F69.9°C 100% 2.0 mph E3.2 kmh E -- 24.31 in823.2 mb 0.00 in0.0 mm 0.00 in0.0 mm 0.00 in0.0 mm
05:20 AM 157.9°F69.9°C 157.8°F69.9°C 100% 2.0 mph E3.2 kmh E -- 24.32 in823.6 mb 0.00 in0.0 mm 0.00 in0.0 mm 0.00 in0.0 mm
05:15 AM 157.9°F69.9°C 157.8°F69.9°C 100% 2.0 mph E3.2 kmh E -- 24.32 in823.6 mb 0.00 in0.0 mm 0.00 in0.0 mm 0.00 in0.0 mm
05:10 AM 157.9°F69.9°C 157.8°F69.9°C 100% 2.0 mph E3.2 kmh E -- 24.32 in823.6 mb 0.00 in0.0 mm 0.00 in0.0 mm 0.00 in0.0 mm
05:05 AM 157.9°F69.9°C 157.8°F69.9°C 100% 2.0 mph E3.2 kmh E -- 24.32 in823.6 mb 0.00 in0.0 mm 0.00 in0.0 mm 0.00 in0.0 mm
05:00 AM 157.9°F69.9°C 157.8°F69.9°C 100% 2.0 mph E3.2 kmh E -- 24.18 in818.8 mb 0.00 in0.0 mm 0.00 in0.0 mm 0.00 in0.0 mm
04:55 AM 157.9°F69.9°C 157.8°F69.9°C 100% 2.0 mph E3.2 kmh E -- 24.18 in818.8 mb 0.00 in0.0 mm 0.00 in0.0 mm 0.00 in0.0 mm
04:50 AM 157.9°F69.9°C 157.8°F69.9°C 100% 2.0 mph E3.2 kmh E -- 24.18 in818.8 mb 0.00 in0.0 mm 0.00 in0.0 mm 0.00 in0.0 mm
04:45 AM 157.9°F69.9°C 157.8°F69.9°C 100% 2.0 mph E3.2 kmh E -- 24.18 in818.8 mb 0.00 in0.0 mm 0.00 in0.0 mm 0.00 in0.0 mm
04:40 AM 157.9°F69.9°C 157.8°F69.9°C 100% 2.0 mph E3.2 kmh E -- 24.18 in818.8 mb 0.00 in0.0 mm 0.00 in0.0 mm 0.00 in0.0 mm
04:35 AM 157.9°F69.9°C 157.8°F69.9°C 100% 2.0 mph E3.2 kmh E -- 24.18 in818.8 mb 0.00 in0.0 mm 0.00 in0.0 mm 0.00 in0.0 mm
04:30 AM 157.9°F69.9°C 157.8°F69.9°C 100% 2.0 mph E3.2 kmh E -- 24.18 in818.8 mb 0.00 in0.0 mm 0.00 in0.0 mm 0.00 in0.0 mm
04:25 AM 157.9°F69.9°C 157.8°F69.9°C 100% 2.0 mph E3.2 kmh E -- 24.18 in818.8 mb 0.00 in0.0 mm 0.00 in0.0 mm 0.00 in0.0 mm
04:20 AM 157.9°F69.9°C 157.8°F69.9°C 100% 2.0 mph E3.2 kmh E -- 24.18 in818.8 mb 0.00 in0.0 mm 0.00 in0.0 mm 0.00 in0.0 mm
04:15 AM 157.9°F69.9°C 157.8°F69.9°C 100% 2.0 mph E3.2 kmh E -- 24.18 in818.8 mb 0.00 in0.0 mm 0.00 in0.0 mm 0.00 in0.0 mm
04:10 AM 157.9°F69.9°C 157.8°F69.9°C 100% 2.0 mph E3.2 kmh E -- 24.18 in818.8 mb 0.00 in0.0 mm 0.00 in0.0 mm 0.00 in0.0 mm
04:05 AM 157.9°F69.9°C 157.8°F69.9°C 100% 2.0 mph E3.2 kmh E 3.0 mph4.8 kmh 24.18 in818.8 mb 0.00 in0.0 mm 0.00 in0.0 mm 0.00 in0.0 mm
04:00 AM 57.3°F14.1°C 55.8°F13.2°C 95% 1.0 mph E1.6 kmh E 2.0 mph3.2 kmh 24.18 in818.8 mb 0.00 in0.0 mm 0.00 in0.0 mm 0.00 in0.0 mm
03:55 AM 57.2°F14.0°C 55.7°F13.2°C 95% 1.0 mph SE1.6 kmh SE 2.0 mph3.2 kmh 24.18 in818.8 mb 0.00 in0.0 mm 0.00 in0.0 mm 0.00 in0.0 mm
03:50 AM 57.2°F14.0°C 55.7°F13.2°C 95% 1.0 mph ESE1.6 kmh ESE 2.0 mph3.2 kmh 24.18 in818.8 mb 0.00 in0.0 mm 0.00 in0.0 mm 0.00 in0.0 mm
03:45 AM 57.3°F14.1°C 55.8°F13.2°C 95% 1.0 mph ESE1.6 kmh ESE 3.0 mph4.8 kmh 24.18 in818.8 mb 0.00 in0.0 mm 0.00 in0.0 mm 0.00 in0.0 mm
03:40 AM 57.5°F14.2°C 56.0°F13.3°C 95% 1.0 mph SE1.6 kmh SE 2.0 mph3.2 kmh 24.18 in818.8 mb 0.00 in0.0 mm 0.00 in0.0 mm 0.00 in0.0 mm
03:35 AM 57.4°F14.1°C 55.9°F13.3°C 95% 1.0 mph E1.6 kmh E 1.0 mph1.6 kmh 24.18 in818.8 mb 0.00 in0.0 mm 0.00 in0.0 mm 0.00 in0.0 mm
03:30 AM 57.5°F14.2°C 56.0°F13.3°C 95% Calm Calm 2.0 mph3.2 kmh 24.18 in818.8 mb 0.00 in0.0 mm 0.00 in0.0 mm 0.00 in0.0 mm
03:25 AM 57.6°F14.2°C 56.1°F13.4°C 95% 1.0 mph ENE1.6 kmh ENE 2.0 mph3.2 kmh 24.18 in818.8 mb 0.00 in0.0 mm 0.00 in0.0 mm 0.00 in0.0 mm
03:20 AM 57.6°F14.2°C 56.1°F13.4°C 95% 1.0 mph NE1.6 kmh NE 2.0 mph3.2 kmh 24.18 in818.8 mb 0.00 in0.0 mm 0.00 in0.0 mm 0.00 in0.0 mm
03:15 AM 57.7°F14.3°C 56.2°F13.4°C 95% 1.0 mph NE1.6 kmh NE 2.0 mph3.2 kmh 24.18 in818.8 mb 0.00 in0.0 mm 0.00 in0.0 mm 0.00 in0.0 mm
03:10 AM 57.8°F14.3°C 56.3°F13.5°C 95% 1.0 mph NE1.6 kmh NE 2.0 mph3.2 kmh 24.18 in818.8 mb 0.00 in0.0 mm 0.00 in0.0 mm 0.00 in0.0 mm
03:05 AM 57.8°F14.3°C 56.3°F13.5°C 95% 1.0 mph ENE1.6 kmh ENE 3.0 mph4.8 kmh 24.18 in818.8 mb 0.00 in0.0 mm 0.00 in0.0 mm 0.00 in0.0 mm
03:00 AM 57.8°F14.3°C 56.3°F13.5°C 95% 3.0 mph NE4.8 kmh NE 3.0 mph4.8 kmh 24.18 in818.8 mb 0.00 in0.0 mm 0.00 in0.0 mm 0.00 in0.0 mm
02:55 AM 57.9°F14.4°C 56.4°F13.6°C 95% 1.0 mph NE1.6 kmh NE 3.0 mph4.8 kmh 24.18 in818.8 mb 0.00 in0.0 mm 0.00 in0.0 mm 0.00 in0.0 mm
02:50 AM 57.9°F14.4°C 56.4°F13.6°C 95% 1.0 mph ENE1.6 kmh ENE 2.0 mph3.2 kmh 24.18 in818.8 mb 0.00 in0.0 mm 0.00 in0.0 mm 0.00 in0.0 mm
02:45 AM 58.0°F14.4°C 56.5°F13.6°C 95% 1.0 mph NE1.6 kmh NE 2.0 mph3.2 kmh 24.18 in818.8 mb 0.00 in0.0 mm 0.00 in0.0 mm 0.00 in0.0 mm
02:40 AM 58.1°F14.5°C 56.6°F13.7°C 95% 1.0 mph NE1.6 kmh NE 3.0 mph4.8 kmh 24.18 in818.8 mb 0.00 in0.0 mm 0.00 in0.0 mm 0.00 in0.0 mm
02:35 AM 58.2°F14.6°C 56.7°F13.7°C 95% 1.0 mph NE1.6 kmh NE 4.0 mph6.4 kmh 24.18 in818.8 mb 0.00 in0.0 mm 0.00 in0.0 mm 0.00 in0.0 mm
02:30 AM 58.4°F14.7°C 56.9°F13.8°C 95% 4.0 mph NE6.4 kmh NE 5.0 mph8.0 kmh 24.18 in818.8 mb 0.00 in0.0 mm 0.00 in0.0 mm 0.00 in0.0 mm
02:25 AM 58.5°F14.7°C 57.0°F13.9°C 95% 4.0 mph NE6.4 kmh NE 6.0 mph9.7 kmh 24.18 in818.8 mb 0.00 in0.0 mm 0.00 in0.0 mm 0.00 in0.0 mm
02:20 AM 58.6°F14.8°C 57.1°F13.9°C 95% 5.0 mph NE8.0 kmh NE 5.0 mph8.0 kmh 24.18 in818.8 mb 0.00 in0.0 mm 0.00 in0.0 mm 0.00 in0.0 mm
02:15 AM 58.8°F14.9°C 57.3°F14.1°C 95% 3.0 mph NE4.8 kmh NE 5.0 mph8.0 kmh 24.18 in818.8 mb 0.00 in0.0 mm 0.00 in0.0 mm 0.00 in0.0 mm
02:10 AM 58.8°F14.9°C 57.3°F14.1°C 95% 3.0 mph N4.8 kmh N 5.0 mph8.0 kmh 24.18 in818.8 mb 0.00 in0.0 mm 0.00 in0.0 mm 0.00 in0.0 mm
02:05 AM 58.9°F14.9°C 57.4°F14.1°C 95% 2.0 mph N3.2 kmh N 3.0 mph4.8 kmh 24.18 in818.8 mb 0.00 in0.0 mm 0.00 in0.0 mm 0.00 in0.0 mm
02:00 AM 59.0°F15.0°C 57.5°F14.2°C 95% Calm Calm 2.0 mph3.2 kmh 24.18 in818.8 mb 0.00 in0.0 mm 0.00 in0.0 mm 0.00 in0.0 mm
01:55 AM 59.0°F15.0°C 57.5°F14.2°C 95% 2.0 mph NNW3.2 kmh NNW 3.0 mph4.8 kmh 24.18 in818.8 mb 0.00 in0.0 mm 0.00 in0.0 mm 0.00 in0.0 mm
01:50 AM 59.1°F15.1°C 57.6°F14.2°C 95% 1.0 mph 1.6 kmh 3.0 mph4.8 kmh 24.18 in818.8 mb 0.00 in0.0 mm 0.00 in0.0 mm 0.00 in0.0 mm
01:45 AM 59.0°F15.0°C 57.5°F14.2°C 95% Calm Calm 4.0 mph6.4 kmh 24.18 in818.8 mb 0.00 in0.0 mm 0.00 in0.0 mm 0.00 in0.0 mm
01:40 AM 59.1°F15.1°C 57.6°F14.2°C 95% 1.0 mph N1.6 kmh N 2.0 mph3.2 kmh 24.18 in818.8 mb 0.00 in0.0 mm 0.00 in0.0 mm 0.00 in0.0 mm
01:35 AM 59.1°F15.1°C 57.6°F14.2°C 95% 2.0 mph NE3.2 kmh NE 4.0 mph6.4 kmh 24.18 in818.8 mb 0.00 in0.0 mm 0.00 in0.0 mm 0.00 in0.0 mm
01:30 AM 59.0°F15.0°C 57.5°F14.2°C 95% 1.0 mph NE1.6 kmh NE 2.0 mph3.2 kmh 24.18 in818.8 mb 0.00 in0.0 mm 0.00 in0.0 mm 0.00 in0.0 mm
01:25 AM 59.0°F15.0°C 57.5°F14.2°C 95% Calm Calm 2.0 mph3.2 kmh 24.18 in818.8 mb 0.00 in0.0 mm 0.00 in0.0 mm 0.00 in0.0 mm
01:20 AM 59.0°F15.0°C 57.5°F14.2°C 95% 1.0 mph NNE1.6 kmh NNE 3.0 mph4.8 kmh 24.18 in818.8 mb 0.00 in0.0 mm 0.00 in0.0 mm 0.00 in0.0 mm
01:15 AM 59.0°F15.0°C 57.5°F14.2°C 95% 1.0 mph NNE1.6 kmh NNE 4.0 mph6.4 kmh 24.18 in818.8 mb 0.00 in0.0 mm 0.00 in0.0 mm 0.00 in0.0 mm
01:10 AM 59.0°F15.0°C 57.5°F14.2°C 95% 1.0 mph N1.6 kmh N 3.0 mph4.8 kmh 24.18 in818.8 mb 0.00 in0.0 mm 0.00 in0.0 mm 0.00 in0.0 mm
01:05 AM 59.1°F15.1°C 57.6°F14.2°C 95% 1.0 mph NNE1.6 kmh NNE 3.0 mph4.8 kmh 24.18 in818.8 mb 0.00 in0.0 mm 0.00 in0.0 mm 0.00 in0.0 mm
01:00 AM 59.2°F15.1°C 57.7°F14.3°C 95% 1.0 mph NNE1.6 kmh NNE 3.0 mph4.8 kmh 24.18 in818.8 mb 0.00 in0.0 mm 0.00 in0.0 mm 0.00 in0.0 mm
12:55 AM 59.3°F15.2°C 57.8°F14.3°C 95% 1.0 mph N1.6 kmh N 3.0 mph4.8 kmh 24.18 in818.8 mb 0.00 in0.0 mm 0.00 in0.0 mm 0.00 in0.0 mm
12:50 AM 59.4°F15.2°C 57.9°F14.4°C 95% 1.0 mph 1.6 kmh 5.0 mph8.0 kmh 24.18 in818.8 mb 0.00 in0.0 mm 0.00 in0.0 mm 0.00 in0.0 mm
12:45 AM 59.5°F15.3°C 58.0°F14.4°C 95% 3.0 mph N4.8 kmh N 6.0 mph9.7 kmh 24.18 in818.8 mb 0.00 in0.0 mm 0.00 in0.0 mm 0.00 in0.0 mm
12:40 AM 59.6°F15.3°C 58.1°F14.5°C 95% 1.0 mph N1.6 kmh N 2.0 mph3.2 kmh 24.18 in818.8 mb 0.00 in0.0 mm 0.00 in0.0 mm 0.00 in0.0 mm
12:35 AM 59.5°F15.3°C 58.0°F14.4°C 95% 2.0 mph N3.2 kmh N 5.0 mph8.0 kmh 24.18 in818.8 mb 0.00 in0.0 mm 0.00 in0.0 mm 0.00 in0.0 mm
12:30 AM 59.5°F15.3°C 58.0°F14.4°C 95% 3.0 mph N4.8 kmh N 6.0 mph9.7 kmh 24.18 in818.8 mb 0.00 in0.0 mm 0.00 in0.0 mm 0.00 in0.0 mm
12:25 AM 59.6°F15.3°C 58.1°F14.5°C 95% Calm Calm 4.0 mph6.4 kmh 24.18 in818.8 mb 0.00 in0.0 mm 0.00 in0.0 mm 0.00 in0.0 mm
12:20 AM 59.6°F15.3°C 58.1°F14.5°C 95% 2.0 mph 3.2 kmh 4.0 mph6.4 kmh 24.18 in818.8 mb 0.00 in0.0 mm 0.00 in0.0 mm 0.00 in0.0 mm
12:15 AM 59.6°F15.3°C 58.1°F14.5°C 95% Calm Calm 4.0 mph6.4 kmh 24.18 in818.8 mb 0.00 in0.0 mm 0.00 in0.0 mm 0.00 in0.0 mm
12:10 AM 59.7°F15.4°C 58.2°F14.6°C 95% 2.0 mph NNE3.2 kmh NNE 3.0 mph4.8 kmh 24.18 in818.8 mb 0.00 in0.0 mm 0.00 in0.0 mm 0.00 in0.0 mm
12:05 AM 59.7°F15.4°C 58.2°F14.6°C 95% 1.0 mph N1.6 kmh N 2.0 mph3.2 kmh 24.18 in818.8 mb 0.00 in0.0 mm 0.00 in0.0 mm 0.00 in0.0 mm
12:00 AM 59.7°F15.4°C 58.2°F14.6°C 95% Calm Calm 3.0 mph4.8 kmh 24.18 in818.8 mb 0.00 in0.0 mm 0.00 in0.0 mm 0.00 in0.0 mm